Portada
METAR-TAF:

METAR-TAF

Aeroports :

Arar, Aràbia Saudita

latitud: 30-54N, longitud: 041-08E, altitud: 555 m

Observació

L'informe es va fer fa 43 minuts, a les 02:00 UTC
Vent 10 kt del Nord/Nord-Oest
Temperatura 26°C
Humitat 24%
Pressió 1006 hPa
Visibilitat 10 km o més
sense núvols per sota de 1500 mi sense presència de cumulonimbus.

METAR: OERR 160200Z 34010KT CAVOK 26/04 Q1006 NOSIG

Hora: 05:43 (02:43 UTC)

Pronòstic

L'informe es va fer fa 3 hores i 43 minuts, a les 23:00 UTC
Pronòstic vàlid del 16 a les 00 UTC al 17 a les 06 UTC
Vent 8 kt del Nord/Nord-Oest
Visibilitat 10 km o més
sense núvols per sota de 1500 mi sense presència de cumulonimbus.
Evolucionant progressivament
l' 16 a les 12 UTC al 16 a les 14 UTC
Vent 6 kt del Oest amb ràfegues de 16 kt
Temporalment
l' 16 a les 06 UTC al 16 a les 14 UTC
Visibilitat: 5000 m
Pols estès, torb alta de pols

TAF: OERR 152300Z 1600/1706 34008KT CAVOK BECMG 1612/1614 27006G16KT TEMPO 1606/1614 5000 DU BLDU

Observacions i pronòstics meteorològics de més de 4000 aeroports (METAR i TAF).

Les estacions disponibles són els punts grocs i vermells al mapa.

Posi el ratolí al punt desitjat per veure el nom de l'estació.

Feu clic per veure les observacions i els pronòstics meteorològics.

Per canviar el mapa: feu clic els botons verds amb una creu de color negre per apropar; al botó verd amb un guió per allunyar la imatge; o en les fletxes verdes per a mapes adjacents.


METAR-TAF: